Time,TemperatureF,DewpointF,PressureIn,WindDirection,WindDirectionDegrees,WindSpeedMPH,WindSpeedGustMPH,Humidity,HourlyPrecipIn,Conditions,Clouds,dailyrainin,SoftwareType,DateUTC
2013-04-18 02:42:00,62.0,60.0,29.53,NE,39,1.0,11.0,92,-99.99,,,-99.99,,2013-04-18 07:42:00,
2013-04-18 02:53:00,62.0,60.0,29.53,NE,39,1.0,11.0,92,-99.99,,,-99.99,,2013-04-18 07:53:00,
2013-04-18 03:02:00,62.0,60.0,29.53,NE,39,1.0,11.0,92,-99.99,,,-99.99,,2013-04-18 08:02:00,
2013-04-18 03:12:00,62.0,61.0,29.53,WSW,243,0.0,6.0,95,-99.99,,,-99.99,,2013-04-18 08:12:00,
2013-04-18 03:22:00,62.0,61.0,29.53,WSW,243,0.0,6.0,95,-99.99,,,-99.99,,2013-04-18 08:22:00,
2013-04-18 03:32:00,61.0,60.0,29.56,NNW,346,6.0,13.0,95,-99.99,,,-99.99,,2013-04-18 08:32:00,
2013-04-18 03:42:00,61.0,60.0,29.59,WNW,297,4.0,7.0,95,0.01,,,-99.99,,2013-04-18 08:42:00,
2013-04-18 03:52:00,61.0,60.0,29.59,WNW,297,4.0,7.0,95,0.01,,,-99.99,,2013-04-18 08:52:00,
2013-04-18 04:02:00,61.0,60.0,29.56,West,261,1.0,5.0,95,0.00,,,-99.99,,2013-04-18 09:02:00,
2013-04-18 04:12:00,61.0,60.0,29.56,West,261,0.0,7.0,95,0.00,,,-99.99,,2013-04-18 09:12:00,
2013-04-18 04:22:00,61.0,60.0,29.56,West,261,0.0,7.0,95,0.00,,,-99.99,,2013-04-18 09:22:00,
2013-04-18 04:32:00,61.0,60.0,29.54,South,184,7.0,11.0,96,0.00,,,-99.99,,2013-04-18 09:32:00,
2013-04-18 04:43:00,61.0,60.0,29.54,South,184,7.0,11.0,96,0.00,,,-99.99,,2013-04-18 09:43:00,
2013-04-18 04:53:00,61.0,60.0,29.54,South,184,7.0,11.0,96,0.00,,,-99.99,,2013-04-18 09:53:00,
2013-04-18 05:03:00,61.0,60.0,29.54,South,190,8.0,10.0,96,0.00,,,-99.99,,2013-04-18 10:03:00,
2013-04-18 05:12:00,61.0,60.0,29.54,South,190,8.0,10.0,96,0.00,,,-99.99,,2013-04-18 10:12:00,
2013-04-18 05:23:00,61.0,60.0,29.54,South,190,8.0,10.0,96,0.00,,,-99.99,,2013-04-18 10:23:00,
2013-04-18 05:32:00,62.0,61.0,29.54,SW,218,9.0,14.0,96,0.00,,,-99.99,,2013-04-18 10:32:00,
2013-04-18 05:42:00,62.0,61.0,29.54,SW,218,9.0,14.0,96,0.00,,,-99.99,,2013-04-18 10:42:00,
2013-04-18 05:52:00,62.0,61.0,29.55,SW,232,13.0,18.0,96,0.00,,,-99.99,,2013-04-18 10:52:00,
2013-04-18 06:02:00,62.0,61.0,29.53,SW,218,12.0,19.0,95,0.00,,,-99.99,,2013-04-18 11:02:00,
2013-04-18 06:12:00,62.0,61.0,29.49,SSW,195,13.0,22.0,96,0.00,,,-99.99,,2013-04-18 11:12:00,
2013-04-18 06:22:00,62.0,61.0,29.49,SSW,195,13.0,22.0,96,0.00,,,-99.99,,2013-04-18 11:22:00,
2013-04-18 06:32:00,62.0,61.0,29.48,SSW,199,13.0,16.0,96,0.00,,,-99.99,,2013-04-18 11:32:00,
2013-04-18 06:42:00,62.0,61.0,29.48,SSW,199,13.0,16.0,96,0.00,,,-99.99,,2013-04-18 11:42:00,
2013-04-18 06:52:00,63.0,62.0,29.49,SW,223,10.0,16.0,96,0.00,,,-99.99,,2013-04-18 11:52:00,
2013-04-18 07:02:00,63.0,62.0,29.49,SW,218,10.0,14.0,95,0.00,,,-99.99,,2013-04-18 12:02:00,
2013-04-18 07:12:00,63.0,62.0,29.49,SW,218,10.0,14.0,95,0.00,,,-99.99,,2013-04-18 12:12:00,
2013-04-18 07:22:00,63.0,62.0,29.52,West,261,4.0,15.0,95,0.00,,,-99.99,,2013-04-18 12:22:00,
2013-04-18 07:32:00,63.0,62.0,29.52,WSW,253,11.0,15.0,95,0.00,,,-99.99,,2013-04-18 12:32:00,
2013-04-18 07:42:00,63.0,62.0,29.52,WSW,253,11.0,15.0,95,0.00,,,-99.99,,2013-04-18 12:42:00,
2013-04-18 07:52:00,63.0,62.0,29.52,WSW,253,11.0,15.0,95,0.00,,,-99.99,,2013-04-18 12:52:00,
2013-04-18 08:02:00,64.0,63.0,29.54,West,275,5.0,10.0,95,0.00,,,-99.99,,2013-04-18 13:02:00,
2013-04-18 08:12:00,64.0,63.0,29.54,West,275,5.0,10.0,95,0.00,,,-99.99,,2013-04-18 13:12:00,
2013-04-18 08:22:00,64.0,63.0,29.52,West,259,9.0,13.0,95,0.00,,,-99.99,,2013-04-18 13:22:00,
2013-04-18 08:32:00,64.0,63.0,29.52,West,259,9.0,13.0,95,0.00,,,-99.99,,2013-04-18 13:32:00,
2013-04-18 08:42:00,65.0,63.0,29.52,West,272,5.0,13.0,94,0.00,,,-99.99,,2013-04-18 13:42:00,
2013-04-18 08:53:00,65.0,63.0,29.52,West,272,5.0,13.0,94,0.00,,,-99.99,,2013-04-18 13:53:00,
2013-04-18 09:02:00,65.0,63.0,29.52,West,272,5.0,13.0,94,0.00,,,-99.99,,2013-04-18 14:02:00,
2013-04-18 09:12:00,51.0,49.0,29.58,North,353,18.0,29.0,94,0.00,,,-99.99,,2013-04-18 14:12:00,
2013-04-18 09:22:00,51.0,49.0,29.58,North,353,18.0,29.0,94,0.00,,,-99.99,,2013-04-18 14:22:00,
2013-04-18 09:32:00,51.0,49.0,29.58,North,353,18.0,29.0,94,0.00,,,-99.99,,2013-04-18 14:32:00,
2013-04-18 09:43:00,51.0,49.0,29.58,North,353,18.0,29.0,94,0.00,,,-99.99,,2013-04-18 14:43:00,
2013-04-18 09:52:00,48.0,47.0,29.62,North,353,20.0,33.0,95,0.00,,,-99.99,,2013-04-18 14:52:00,
2013-04-18 10:02:00,47.0,46.0,29.63,NW,326,16.0,23.0,95,0.00,,,-99.99,,2013-04-18 15:02:00,
2013-04-18 10:12:00,47.0,46.0,29.63,NW,326,16.0,23.0,95,0.00,,,-99.99,,2013-04-18 15:12:00,
2013-04-18 10:22:00,46.0,44.0,29.63,NW,319,20.0,27.0,94,0.00,,,-99.99,,2013-04-18 15:22:00,
2013-04-18 10:33:00,46.0,44.0,29.65,NNW,338,17.0,32.0,94,0.00,,,-99.99,,2013-04-18 15:33:00,
2013-04-18 10:42:00,45.0,43.0,29.64,North,351,17.0,32.0,93,0.00,,,-99.99,,2013-04-18 15:42:00,
2013-04-18 10:53:00,45.0,43.0,29.64,North,351,17.0,32.0,93,0.00,,,-99.99,,2013-04-18 15:53:00,
2013-04-18 11:03:00,45.0,43.0,29.66,NNW,338,21.0,29.0,93,0.00,,,-99.99,,2013-04-18 16:03:00,
2013-04-18 11:13:00,45.0,43.0,29.67,North,359,17.0,32.0,92,0.00,,,-99.99,,2013-04-18 16:13:00,
2013-04-18 11:23:00,45.0,43.0,29.67,North,359,17.0,32.0,92,0.00,,,-99.99,,2013-04-18 16:23:00,
2013-04-18 11:33:00,45.0,42.0,29.70,NNW,331,18.0,27.0,90,0.00,,,-99.99,,2013-04-18 16:33:00,
2013-04-18 11:43:00,44.0,42.0,29.72,NNW,342,19.0,27.0,91,0.00,,,-99.99,,2013-04-18 16:43:00,
2013-04-18 11:53:00,44.0,42.0,29.72,NNW,342,19.0,27.0,91,0.00,,,-99.99,,2013-04-18 16:53:00,
2013-04-18 12:02:00,43.0,40.0,29.72,North,359,13.0,27.0,90,0.00,,,-99.99,,2013-04-18 17:02:00,
2013-04-18 12:12:00,43.0,41.0,29.73,NW,325,12.0,23.0,91,0.00,,,-99.99,,2013-04-18 17:12:00,
2013-04-18 12:22:00,43.0,41.0,29.73,NW,325,12.0,23.0,91,0.00,,,-99.99,,2013-04-18 17:22:00,
2013-04-18 12:33:00,43.0,41.0,29.73,NW,325,12.0,23.0,91,0.00,,,-99.99,,2013-04-18 17:33:00,
2013-04-18 12:42:00,43.0,41.0,29.72,NNW,344,17.0,28.0,91,0.00,,,-99.99,,2013-04-18 17:42:00,
2013-04-18 12:52:00,43.0,41.0,29.72,NNW,344,17.0,28.0,91,0.00,,,-99.99,,2013-04-18 17:52:00,
2013-04-18 13:02:00,42.0,40.0,29.74,NNW,338,19.0,26.0,91,0.00,,,-99.99,,2013-04-18 18:02:00,
2013-04-18 13:12:00,42.0,39.0,29.74,NNW,343,18.0,30.0,90,0.00,,,-99.99,,2013-04-18 18:12:00,
2013-04-18 13:22:00,42.0,39.0,29.74,NNW,343,18.0,30.0,90,0.00,,,-99.99,,2013-04-18 18:22:00,
2013-04-18 13:32:00,42.0,39.0,29.73,North,353,18.0,27.0,89,0.00,,,-99.99,,2013-04-18 18:32:00,
2013-04-18 13:42:00,42.0,39.0,29.73,NNW,346,14.0,27.0,89,0.00,,,-99.99,,2013-04-18 18:42:00,
2013-04-18 13:52:00,42.0,39.0,29.73,NNW,346,14.0,27.0,89,0.00,,,-99.99,,2013-04-18 18:52:00,
2013-04-18 14:02:00,42.0,39.0,29.71,NNW,343,17.0,25.0,89,0.00,,,-99.99,,2013-04-18 19:02:00,
2013-04-18 14:12:00,42.0,39.0,29.71,NNW,343,17.0,25.0,89,0.00,,,-99.99,,2013-04-18 19:12:00,
2013-04-18 14:22:00,42.0,39.0,29.71,NNW,343,17.0,25.0,89,0.00,,,-99.99,,2013-04-18 19:22:00,
2013-04-18 14:32:00,42.0,39.0,29.71,NNW,343,17.0,25.0,89,0.00,,,-99.99,,2013-04-18 19:32:00,
2013-04-18 14:42:00,42.0,39.0,29.71,NNW,343,17.0,25.0,89,0.00,,,-99.99,,2013-04-18 19:42:00,
2013-04-18 14:53:00,42.0,39.0,29.72,North,356,15.0,25.0,88,0.00,,,-99.99,,2013-04-18 19:53:00,
2013-04-18 15:02:00,42.0,38.0,29.73,NNW,347,16.0,26.0,86,0.00,,,-99.99,,2013-04-18 20:02:00,
2013-04-18 15:12:00,42.0,38.0,29.73,NNW,347,16.0,26.0,86,0.00,,,-99.99,,2013-04-18 20:12:00,
2013-04-18 15:22:00,42.0,38.0,29.74,North,352,15.0,24.0,85,0.00,,,-99.99,,2013-04-18 20:22:00,
2013-04-18 15:32:00,43.0,38.0,29.74,North,349,18.0,26.0,84,0.00,,,-99.99,,2013-04-18 20:32:00,
2013-04-18 15:42:00,43.0,38.0,29.75,North,349,13.0,27.0,84,0.00,,,-99.99,,2013-04-18 20:42:00,
2013-04-18 15:52:00,43.0,38.0,29.75,North,349,13.0,27.0,84,0.00,,,-99.99,,2013-04-18 20:52:00,
2013-04-18 16:02:00,43.0,37.0,29.76,NNW,344,18.0,28.0,80,0.00,,,-99.99,,2013-04-18 21:02:00,
2013-04-18 16:12:00,43.0,37.0,29.76,NNW,344,18.0,28.0,80,0.00,,,-99.99,,2013-04-18 21:12:00,
2013-04-18 16:22:00,44.0,38.0,29.77,NNW,342,14.0,24.0,79,0.00,,,-99.99,,2013-04-18 21:22:00,
2013-04-18 16:32:00,43.0,37.0,29.76,North,349,19.0,31.0,79,0.00,,,-99.99,,2013-04-18 21:32:00,
2013-04-18 16:43:00,43.0,37.0,29.78,North,350,13.0,26.0,79,0.00,,,-99.99,,2013-04-18 21:43:00,
2013-04-18 16:53:00,43.0,37.0,29.78,North,350,13.0,26.0,79,0.00,,,-99.99,,2013-04-18 21:53:00,
2013-04-18 17:02:00,43.0,37.0,29.78,North,350,13.0,26.0,79,0.00,,,-99.99,,2013-04-18 22:02:00,
2013-04-18 17:13:00,42.0,36.0,29.80,North,355,17.0,24.0,78,0.00,,,-99.99,,2013-04-18 22:13:00,
2013-04-18 17:22:00,42.0,36.0,29.80,North,355,17.0,24.0,78,0.00,,,-99.99,,2013-04-18 22:22:00,
2013-04-18 17:32:00,42.0,36.0,29.81,North,353,13.0,24.0,79,0.00,,,-99.99,,2013-04-18 22:32:00,
2013-04-18 17:42:00,42.0,36.0,29.81,NNE,13,13.0,27.0,79,0.00,,,-99.99,,2013-04-18 22:42:00,
2013-04-18 17:52:00,42.0,36.0,29.81,NNE,13,13.0,27.0,79,0.00,,,-99.99,,2013-04-18 22:52:00,
2013-04-18 18:03:00,42.0,36.0,29.82,NNW,344,12.0,23.0,79,0.00,,,-99.99,,2013-04-18 23:03:00,
2013-04-18 18:11:00,42.0,36.0,29.82,North,349,10.0,18.0,79,0.00,,,-99.99,,2013-04-18 23:11:00,
2013-04-18 18:21:00,42.0,36.0,29.82,North,349,10.0,18.0,79,0.00,,,-99.99,,2013-04-18 23:21:00,
2013-04-18 18:32:00,42.0,36.0,29.82,NNW,337,12.0,19.0,79,0.00,,,-99.99,,2013-04-18 23:32:00,
2013-04-18 18:42:00,42.0,36.0,29.82,North,3,16.0,28.0,78,0.00,,,-99.99,,2013-04-18 23:42:00,
2013-04-18 18:52:00,42.0,36.0,29.82,North,3,16.0,28.0,78,0.00,,,-99.99,,2013-04-18 23:52:00,
2013-04-18 19:01:00,42.0,36.0,29.83,North,1,10.0,23.0,78,0.00,,,-99.99,,2013-04-19 00:01:00,
2013-04-18 19:12:00,42.0,36.0,29.83,North,1,10.0,23.0,78,0.00,,,-99.99,,2013-04-19 00:12:00,
2013-04-18 19:21:00,42.0,35.0,29.83,North,353,8.0,21.0,77,0.00,,,-99.99,,2013-04-19 00:21:00,
2013-04-18 19:32:00,42.0,35.0,29.84,North,356,4.0,18.0,77,0.00,,,-99.99,,2013-04-19 00:32:00,
2013-04-18 19:42:00,42.0,35.0,29.84,North,356,4.0,18.0,77,0.00,,,-99.99,,2013-04-19 00:42:00,
2013-04-18 19:52:00,42.0,36.0,29.84,North,351,9.0,19.0,78,0.00,,,-99.99,,2013-04-19 00:52:00,
2013-04-18 20:01:00,41.0,35.0,29.85,NNW,342,5.0,20.0,78,0.00,,,-99.99,,2013-04-19 01:01:00,
2013-04-18 20:11:00,41.0,35.0,29.85,NNW,342,5.0,20.0,78,0.00,,,-99.99,,2013-04-19 01:11:00,
2013-04-18 20:21:00,42.0,35.0,29.85,NNW,346,12.0,24.0,77,-99.99,,,-99.99,,2013-04-19 01:21:00,
2013-04-18 20:31:00,42.0,35.0,29.85,North,356,6.0,21.0,77,-99.99,,,-99.99,,2013-04-19 01:31:00,
2013-04-18 20:42:00,42.0,35.0,29.85,North,356,6.0,21.0,77,-99.99,,,-99.99,,2013-04-19 01:42:00,
2013-04-18 20:52:00,41.0,34.0,29.86,NNW,348,6.0,19.0,76,-99.99,,,-99.99,,2013-04-19 01:52:00,
2013-04-18 21:01:00,41.0,34.0,29.86,NNW,347,8.0,16.0,76,-99.99,,,-99.99,,2013-04-19 02:01:00,
2013-04-18 21:11:00,41.0,34.0,29.86,NNW,347,8.0,16.0,76,-99.99,,,-99.99,,2013-04-19 02:11:00,
2013-04-18 21:21:00,41.0,34.0,29.87,North,355,10.0,18.0,76,0.00,,,-99.99,,2013-04-19 02:21:00,
2013-04-18 21:32:00,41.0,34.0,29.88,NNW,343,7.0,19.0,76,0.00,,,-99.99,,2013-04-19 02:32:00,
2013-04-18 21:42:00,41.0,34.0,29.88,NNW,343,7.0,19.0,76,0.00,,,-99.99,,2013-04-19 02:42:00,
2013-04-18 21:52:00,41.0,34.0,29.88,NNW,347,10.0,20.0,75,0.00,,,-99.99,,2013-04-19 02:52:00,
2013-04-18 22:01:00,41.0,34.0,29.88,NNW,347,10.0,20.0,75,0.00,,,-99.99,,2013-04-19 03:01:00,
2013-04-18 22:11:00,41.0,34.0,29.88,NNW,347,10.0,20.0,75,0.00,,,-99.99,,2013-04-19 03:11:00,
2013-04-18 22:21:00,41.0,33.0,29.89,NW,324,14.0,24.0,72,0.00,,,-99.99,,2013-04-19 03:21:00,
2013-04-18 22:32:00,41.0,33.0,29.90,North,8,8.0,15.0,73,0.00,,,-99.99,,2013-04-19 03:32:00,
2013-04-18 22:43:00,41.0,33.0,29.90,North,8,8.0,15.0,73,0.00,,,-99.99,,2013-04-19 03:43:00,
2013-04-18 22:53:00,41.0,33.0,29.87,NNW,344,12.0,21.0,74,0.00,,,-99.99,,2013-04-19 03:53:00,
2013-04-18 23:03:00,41.0,33.0,29.87,NNW,344,12.0,21.0,74,0.00,,,-99.99,,2013-04-19 04:03:00,
2013-04-18 23:13:00,41.0,33.0,29.87,NNW,344,12.0,21.0,74,0.00,,,-99.99,,2013-04-19 04:13:00,
2013-04-18 23:23:00,40.0,32.0,29.87,NNW,346,15.0,26.0,73,0.00,,,-99.99,,2013-04-19 04:23:00,
2013-04-18 23:33:00,40.0,32.0,29.87,North,349,10.0,27.0,72,0.00,,,-99.99,,2013-04-19 04:33:00,
2013-04-18 23:43:00,40.0,32.0,29.87,NNW,346,19.0,24.0,72,0.00,,,-99.99,,2013-04-19 04:43:00,
2013-04-18 23:52:00,40.0,32.0,29.87,NNW,346,19.0,24.0,72,0.00,,,-99.99,,2013-04-19 04:52:00,